PWSweather.com
Personal Weather Stations
Station Observations
CANDIOTINO
Barrio Candioti Norte, Santa FeAR 3000

Barrio Candioti NorteSanta FeAR 3000

Lat: -31.632778, Lon: -60.695556

Elevation: 69

Station Type: WH-1081

http://www.eltiempoensantafe.com.ar

High Low Average
Temperature 103.8°F39.9°C 80.6°F27.0°C 91.2°F32.9°C
Dew Point 78.3°F25.7°C 70.4°F21.3°C 74.1°F23.4°C
Winds 13.0 mph 20.9 kmh 0.7 mph 1.1 kmh 5.0 mph ESE8.0 kmh ESE
Wind Gusts 20.6 mph33.2 kmh 5.4 mph8.7 kmh 11.0 mph17.7 kmh
Humidity 79% 38% 59%
Pressure 29.74 in1007.1 mb 29.61 in1002.7 mb -
Precipitation 0.00 in0.0 mm - -
Hour Temp Dew Point Humidity Winds Wind Gusts Pressure Precip Precip Rate Daily Precip Total
12:00 AM 86.9°F30.5°C 76.9°F24.9°C 72% 2.2 mph NE3.5 kmh NE 9.8 mph15.8 kmh 29.70 in1005.8 mb 0.00 in0.0 mm 0.00 in0.0 mm 0.00 in0.0 mm
12:15 AM 86.5°F30.3°C 76.9°F24.9°C 73% 0.7 mph NE1.1 kmh NE 6.0 mph9.7 kmh 29.70 in1005.8 mb 0.00 in0.0 mm 0.00 in0.0 mm 0.00 in0.0 mm
12:30 AM 86.4°F30.2°C 76.8°F24.9°C 73% 2.2 mph NE3.5 kmh NE 5.4 mph8.7 kmh 29.70 in1005.8 mb 0.00 in0.0 mm 0.00 in0.0 mm 0.00 in0.0 mm
12:45 AM 86.4°F30.2°C 76.8°F24.9°C 73% 3.1 mph NE5.0 kmh NE 6.0 mph9.7 kmh 29.71 in1006.1 mb 0.00 in0.0 mm 0.00 in0.0 mm 0.00 in0.0 mm
01:00 AM 86.2°F30.1°C 77.0°F25.0°C 74% 3.8 mph NE6.1 kmh NE 6.0 mph9.7 kmh 29.71 in1006.1 mb 0.00 in0.0 mm 0.00 in0.0 mm 0.00 in0.0 mm
01:15 AM 85.5°F29.7°C 76.7°F24.8°C 75% 1.6 mph ENE2.6 kmh ENE 6.0 mph9.7 kmh 29.71 in1006.1 mb 0.00 in0.0 mm 0.00 in0.0 mm 0.00 in0.0 mm
01:30 AM 85.1°F29.5°C 76.4°F24.7°C 75% 1.6 mph NE2.6 kmh NE 6.9 mph11.1 kmh 29.71 in1006.1 mb 0.00 in0.0 mm 0.00 in0.0 mm 0.00 in0.0 mm
01:45 AM 85.1°F29.5°C 75.9°F24.4°C 74% 2.2 mph ENE3.5 kmh ENE 5.4 mph8.7 kmh 29.71 in1006.1 mb 0.00 in0.0 mm 0.00 in0.0 mm 0.00 in0.0 mm
02:00 AM 84.7°F29.3°C 75.6°F24.2°C 74% 2.2 mph NE3.5 kmh NE 6.9 mph11.1 kmh 29.70 in1005.8 mb 0.00 in0.0 mm 0.00 in0.0 mm 0.00 in0.0 mm
02:15 AM 84.6°F29.2°C 75.4°F24.1°C 74% 3.8 mph ENE6.1 kmh ENE 6.0 mph9.7 kmh 29.70 in1005.8 mb 0.00 in0.0 mm 0.00 in0.0 mm 0.00 in0.0 mm
02:45 AM 84.4°F29.1°C 75.7°F24.3°C 75% 2.2 mph NE3.5 kmh NE 6.9 mph11.1 kmh 29.69 in1005.4 mb 0.00 in0.0 mm 0.00 in0.0 mm 0.00 in0.0 mm
03:00 AM 84.2°F29.0°C 75.5°F24.2°C 75% 2.2 mph NE3.5 kmh NE 6.0 mph9.7 kmh 29.70 in1005.8 mb 0.00 in0.0 mm 0.00 in0.0 mm 0.00 in0.0 mm
03:15 AM 84.0°F28.9°C 75.7°F24.3°C 76% 2.2 mph ENE3.5 kmh ENE 5.4 mph8.7 kmh 29.69 in1005.4 mb 0.00 in0.0 mm 0.00 in0.0 mm 0.00 in0.0 mm
03:30 AM 84.0°F28.9°C 75.7°F24.3°C 76% 2.2 mph NNE3.5 kmh NNE 7.6 mph12.2 kmh 29.68 in1005.1 mb 0.00 in0.0 mm 0.00 in0.0 mm 0.00 in0.0 mm
03:45 AM 84.2°F29.0°C 75.1°F23.9°C 74% 2.2 mph NNE3.5 kmh NNE 8.3 mph13.4 kmh 29.68 in1005.1 mb 0.00 in0.0 mm 0.00 in0.0 mm 0.00 in0.0 mm
04:00 AM 84.0°F28.9°C 75.3°F24.1°C 75% 2.2 mph NNE3.5 kmh NNE 8.3 mph13.4 kmh 29.67 in1004.7 mb 0.00 in0.0 mm 0.00 in0.0 mm 0.00 in0.0 mm
04:15 AM 83.5°F28.6°C 74.8°F23.8°C 75% 3.8 mph NNE6.1 kmh NNE 7.6 mph12.2 kmh 29.68 in1005.1 mb 0.00 in0.0 mm 0.00 in0.0 mm 0.00 in0.0 mm
04:30 AM 83.5°F28.6°C 74.8°F23.8°C 75% 1.6 mph NE2.6 kmh NE 6.0 mph9.7 kmh 29.67 in1004.7 mb 0.00 in0.0 mm 0.00 in0.0 mm 0.00 in0.0 mm
04:45 AM 83.5°F28.6°C 74.8°F23.8°C 75% 2.2 mph NNE3.5 kmh NNE 6.9 mph11.1 kmh 29.67 in1004.7 mb 0.00 in0.0 mm 0.00 in0.0 mm 0.00 in0.0 mm
05:00 AM 83.3°F28.5°C 75.0°F23.9°C 76% 3.8 mph N6.1 kmh N 8.3 mph13.4 kmh 29.67 in1004.7 mb 0.00 in0.0 mm 0.00 in0.0 mm 0.00 in0.0 mm
05:15 AM 82.9°F28.3°C 74.7°F23.7°C 76% 2.2 mph NNE3.5 kmh NNE 7.6 mph12.2 kmh 29.67 in1004.7 mb 0.00 in0.0 mm 0.00 in0.0 mm 0.00 in0.0 mm
05:30 AM 82.8°F28.2°C 74.5°F23.6°C 76% 3.1 mph N5.0 kmh N 9.8 mph15.8 kmh 29.68 in1005.1 mb 0.00 in0.0 mm 0.00 in0.0 mm 0.00 in0.0 mm
05:45 AM 82.8°F28.2°C 74.1°F23.4°C 75% 3.8 mph N6.1 kmh N 9.2 mph14.8 kmh 29.69 in1005.4 mb 0.00 in0.0 mm 0.00 in0.0 mm 0.00 in0.0 mm
06:00 AM 82.0°F27.8°C 73.8°F23.2°C 76% 4.5 mph N7.2 kmh N 9.8 mph15.8 kmh 29.69 in1005.4 mb 0.00 in0.0 mm 0.00 in0.0 mm 0.00 in0.0 mm
06:15 AM 81.7°F27.6°C 73.4°F23.0°C 76% 5.4 mph NNE8.7 kmh NNE 8.3 mph13.4 kmh 29.69 in1005.4 mb 0.00 in0.0 mm 0.00 in0.0 mm 0.00 in0.0 mm
06:30 AM 81.3°F27.4°C 73.5°F23.1°C 77% 10.7 mph N17.2 kmh N 12.1 mph19.5 kmh 29.69 in1005.4 mb 0.00 in0.0 mm 0.00 in0.0 mm 0.00 in0.0 mm
06:45 AM 80.8°F27.1°C 73.3°F22.9°C 78% 4.5 mph N7.2 kmh N 12.1 mph19.5 kmh 29.69 in1005.4 mb 0.00 in0.0 mm 0.00 in0.0 mm 0.00 in0.0 mm
07:00 AM 80.6°F27.0°C 73.5°F23.1°C 79% 4.5 mph N7.2 kmh N 9.2 mph14.8 kmh 29.69 in1005.4 mb 0.00 in0.0 mm 0.00 in0.0 mm 0.00 in0.0 mm
07:15 AM 80.6°F27.0°C 73.5°F23.1°C 79% 5.4 mph N8.7 kmh N 13.0 mph20.9 kmh 29.70 in1005.8 mb 0.00 in0.0 mm 0.00 in0.0 mm 0.00 in0.0 mm
07:30 AM 81.5°F27.5°C 73.7°F23.2°C 77% 6.0 mph N9.7 kmh N 11.4 mph18.3 kmh 29.70 in1005.8 mb 0.00 in0.0 mm 0.00 in0.0 mm 0.00 in0.0 mm
07:45 AM 82.4°F28.0°C 73.7°F23.2°C 75% 5.4 mph N8.7 kmh N 10.7 mph17.2 kmh 29.71 in1006.1 mb 0.00 in0.0 mm 0.00 in0.0 mm 0.00 in0.0 mm
08:00 AM 83.8°F28.8°C 73.5°F23.1°C 71% 5.4 mph N8.7 kmh N 9.2 mph14.8 kmh 29.72 in1006.4 mb 0.00 in0.0 mm 0.00 in0.0 mm 0.00 in0.0 mm
08:15 AM 84.6°F29.2°C 73.3°F22.9°C 69% 4.5 mph N7.2 kmh N 9.8 mph15.8 kmh 29.72 in1006.4 mb 0.00 in0.0 mm 0.00 in0.0 mm 0.00 in0.0 mm
08:30 AM 85.3°F29.6°C 73.1°F22.8°C 67% 4.5 mph NNE7.2 kmh NNE 11.4 mph18.3 kmh 29.72 in1006.4 mb 0.00 in0.0 mm 0.00 in0.0 mm 0.00 in0.0 mm
08:45 AM 85.8°F29.9°C 73.2°F22.9°C 66% 7.6 mph N12.2 kmh N 16.8 mph27.0 kmh 29.72 in1006.4 mb 0.00 in0.0 mm 0.00 in0.0 mm 0.00 in0.0 mm
09:00 AM 86.4°F30.2°C 72.8°F22.7°C 64% 4.5 mph N7.2 kmh N 16.8 mph27.0 kmh 29.72 in1006.4 mb 0.00 in0.0 mm 0.00 in0.0 mm 0.00 in0.0 mm
09:15 AM 87.8°F31.0°C 71.8°F22.1°C 59% 8.3 mph N13.4 kmh N 15.2 mph24.5 kmh 29.71 in1006.1 mb 0.00 in0.0 mm 0.00 in0.0 mm 0.00 in0.0 mm
09:30 AM 89.8°F32.1°C 71.0°F21.7°C 54% 7.6 mph NNW12.2 kmh NNW 13.6 mph21.9 kmh 29.72 in1006.4 mb 0.00 in0.0 mm 0.00 in0.0 mm 0.00 in0.0 mm
09:45 AM 89.8°F32.1°C 70.4°F21.3°C 53% 10.7 mph N17.2 kmh N 19.0 mph30.6 kmh 29.73 in1006.8 mb 0.00 in0.0 mm 0.00 in0.0 mm 0.00 in0.0 mm
10:00 AM 90.9°F32.7°C 70.9°F21.6°C 52% 6.0 mph N9.7 kmh N 17.4 mph28.0 kmh 29.72 in1006.4 mb 0.00 in0.0 mm 0.00 in0.0 mm 0.00 in0.0 mm
10:15 AM 91.4°F33.0°C 70.8°F21.6°C 51% 6.9 mph N11.1 kmh N 17.4 mph28.0 kmh 29.73 in1006.8 mb 0.00 in0.0 mm 0.00 in0.0 mm 0.00 in0.0 mm
10:30 AM 92.7°F33.7°C 70.8°F21.6°C 49% 11.4 mph N18.3 kmh N 20.6 mph33.2 kmh 29.73 in1006.8 mb 0.00 in0.0 mm 0.00 in0.0 mm 0.00 in0.0 mm
10:45 AM 92.7°F33.7°C 70.8°F21.6°C 49% 9.2 mph N14.8 kmh N 19.0 mph30.6 kmh 29.73 in1006.8 mb 0.00 in0.0 mm 0.00 in0.0 mm 0.00 in0.0 mm
11:00 AM 93.0°F33.9°C 70.5°F21.4°C 48% 9.2 mph N14.8 kmh N 19.7 mph31.7 kmh 29.74 in1007.1 mb 0.00 in0.0 mm 0.00 in0.0 mm 0.00 in0.0 mm
11:15 AM 94.8°F34.9°C 71.5°F21.9°C 47% 9.8 mph N15.8 kmh N 17.4 mph28.0 kmh 29.73 in1006.8 mb 0.00 in0.0 mm 0.00 in0.0 mm 0.00 in0.0 mm
11:30 AM 95.0°F35.0°C 71.1°F21.7°C 46% 4.5 mph N7.2 kmh N 16.8 mph27.0 kmh 29.72 in1006.4 mb 0.00 in0.0 mm 0.00 in0.0 mm 0.00 in0.0 mm
11:45 AM 96.8°F36.0°C 70.7°F21.5°C 43% 9.8 mph N15.8 kmh N 15.2 mph24.5 kmh 29.71 in1006.1 mb 0.00 in0.0 mm 0.00 in0.0 mm 0.00 in0.0 mm
12:00 PM 94.5°F34.7°C 70.6°F21.4°C 46% 9.8 mph N15.8 kmh N 19.0 mph30.6 kmh 29.70 in1005.8 mb 0.00 in0.0 mm 0.00 in0.0 mm 0.00 in0.0 mm
12:15 PM 97.0°F36.1°C 70.9°F21.6°C 43% 11.4 mph N18.3 kmh N 16.8 mph27.0 kmh 29.71 in1006.1 mb 0.00 in0.0 mm 0.00 in0.0 mm 0.00 in0.0 mm
12:30 PM 96.3°F35.7°C 71.5°F21.9°C 45% 10.7 mph NNE17.2 kmh NNE 20.6 mph33.2 kmh 29.69 in1005.4 mb 0.00 in0.0 mm 0.00 in0.0 mm 0.00 in0.0 mm
12:45 PM 97.3°F36.3°C 71.2°F21.8°C 43% 8.3 mph N13.4 kmh N 15.2 mph24.5 kmh 29.69 in1005.4 mb 0.00 in0.0 mm 0.00 in0.0 mm 0.00 in0.0 mm
01:00 PM 97.5°F36.4°C 71.3°F21.8°C 43% 8.3 mph N13.4 kmh N 19.0 mph30.6 kmh 29.69 in1005.4 mb 0.00 in0.0 mm 0.00 in0.0 mm 0.00 in0.0 mm
01:15 PM 98.2°F36.8°C 71.3°F21.8°C 42% 6.9 mph NNW11.1 kmh NNW 16.8 mph27.0 kmh 29.68 in1005.1 mb 0.00 in0.0 mm 0.00 in0.0 mm 0.00 in0.0 mm
01:30 PM 98.6°F37.0°C 70.9°F21.6°C 41% 4.5 mph N7.2 kmh N 15.9 mph25.6 kmh 29.68 in1005.1 mb 0.00 in0.0 mm 0.00 in0.0 mm 0.00 in0.0 mm
01:45 PM 99.1°F37.3°C 71.4°F21.9°C 41% 13.0 mph NW20.9 kmh NW 15.9 mph25.6 kmh 29.68 in1005.1 mb 0.00 in0.0 mm 0.00 in0.0 mm 0.00 in0.0 mm
02:00 PM 99.0°F37.2°C 71.2°F21.8°C 41% 6.0 mph N9.7 kmh N 15.9 mph25.6 kmh 29.68 in1005.1 mb 0.00 in0.0 mm 0.00 in0.0 mm 0.00 in0.0 mm
02:15 PM 99.5°F37.5°C 71.7°F22.1°C 41% 6.0 mph NW9.7 kmh NW 15.2 mph24.5 kmh 29.67 in1004.7 mb 0.00 in0.0 mm 0.00 in0.0 mm 0.00 in0.0 mm
02:30 PM 100.9°F38.3°C 73.0°F22.8°C 41% 8.3 mph N13.4 kmh N 13.0 mph20.9 kmh 29.66 in1004.4 mb 0.00 in0.0 mm 0.00 in0.0 mm 0.00 in0.0 mm
02:45 PM 100.2°F37.9°C 72.4°F22.4°C 41% 11.4 mph NW18.3 kmh NW 15.2 mph24.5 kmh 29.65 in1004.1 mb 0.00 in0.0 mm 0.00 in0.0 mm 0.00 in0.0 mm
03:00 PM 100.2°F37.9°C 72.4°F22.4°C 41% 6.9 mph NW11.1 kmh NW 15.2 mph24.5 kmh 29.65 in1004.1 mb 0.00 in0.0 mm 0.00 in0.0 mm 0.00 in0.0 mm
03:15 PM 100.9°F38.3°C 73.0°F22.8°C 41% 6.9 mph NNW11.1 kmh NNW 15.9 mph25.6 kmh 29.64 in1003.7 mb 0.00 in0.0 mm 0.00 in0.0 mm 0.00 in0.0 mm
03:30 PM 101.1°F38.4°C 73.2°F22.9°C 41% 9.2 mph NW14.8 kmh NW 15.9 mph25.6 kmh 29.63 in1003.4 mb 0.00 in0.0 mm 0.00 in0.0 mm 0.00 in0.0 mm
03:45 PM 101.1°F38.4°C 73.2°F22.9°C 41% 3.8 mph N6.1 kmh N 13.6 mph21.9 kmh 29.63 in1003.4 mb 0.00 in0.0 mm 0.00 in0.0 mm 0.00 in0.0 mm
04:00 PM 101.3°F38.5°C 74.0°F23.3°C 42% 3.8 mph NW6.1 kmh NW 15.2 mph24.5 kmh 29.62 in1003.0 mb 0.00 in0.0 mm 0.00 in0.0 mm 0.00 in0.0 mm
04:15 PM 102.4°F39.1°C 72.8°F22.7°C 39% 9.2 mph N14.8 kmh N 13.6 mph21.9 kmh 29.63 in1003.4 mb 0.00 in0.0 mm 0.00 in0.0 mm 0.00 in0.0 mm
04:30 PM 101.7°F38.7°C 73.6°F23.1°C 41% 5.4 mph NNW8.7 kmh NNW 13.0 mph20.9 kmh 29.63 in1003.4 mb 0.00 in0.0 mm 0.00 in0.0 mm 0.00 in0.0 mm
04:45 PM 102.0°F38.9°C 74.0°F23.3°C 41% 4.5 mph N7.2 kmh N 11.4 mph18.3 kmh 29.62 in1003.0 mb 0.00 in0.0 mm 0.00 in0.0 mm 0.00 in0.0 mm
05:00 PM 102.9°F39.4°C 73.3°F22.9°C 39% 6.9 mph N11.1 kmh N 11.4 mph18.3 kmh 29.62 in1003.0 mb 0.00 in0.0 mm 0.00 in0.0 mm 0.00 in0.0 mm
05:15 PM 102.0°F38.9°C 73.2°F22.9°C 40% 6.9 mph NNW11.1 kmh NNW 13.0 mph20.9 kmh 29.62 in1003.0 mb 0.00 in0.0 mm 0.00 in0.0 mm 0.00 in0.0 mm
05:30 PM 103.8°F39.9°C 73.3°F22.9°C 38% 5.4 mph N8.7 kmh N 12.1 mph19.5 kmh 29.62 in1003.0 mb 0.00 in0.0 mm 0.00 in0.0 mm 0.00 in0.0 mm
05:45 PM 102.9°F39.4°C 73.3°F22.9°C 39% 3.8 mph NNE6.1 kmh NNE 9.2 mph14.8 kmh 29.61 in1002.7 mb 0.00 in0.0 mm 0.00 in0.0 mm 0.00 in0.0 mm
06:00 PM 102.7°F39.3°C 76.0°F24.4°C 43% 4.5 mph NE7.2 kmh NE 9.8 mph15.8 kmh 29.62 in1003.0 mb 0.00 in0.0 mm 0.00 in0.0 mm 0.00 in0.0 mm
06:15 PM 102.6°F39.2°C 75.9°F24.4°C 43% 5.4 mph NE8.7 kmh NE 9.2 mph14.8 kmh 29.62 in1003.0 mb 0.00 in0.0 mm 0.00 in0.0 mm 0.00 in0.0 mm
06:30 PM 100.4°F38.0°C 75.3°F24.1°C 45% 3.8 mph ENE6.1 kmh ENE 9.8 mph15.8 kmh 29.62 in1003.0 mb 0.00 in0.0 mm 0.00 in0.0 mm 0.00 in0.0 mm
06:45 PM 97.3°F36.3°C 73.2°F22.9°C 46% 3.8 mph NE6.1 kmh NE 9.2 mph14.8 kmh 29.63 in1003.4 mb 0.00 in0.0 mm 0.00 in0.0 mm 0.00 in0.0 mm
07:00 PM 95.5°F35.3°C 73.4°F23.0°C 49% 3.1 mph ENE5.0 kmh ENE 8.3 mph13.4 kmh 29.63 in1003.4 mb 0.00 in0.0 mm 0.00 in0.0 mm 0.00 in0.0 mm
07:15 PM 95.2°F35.1°C 73.1°F22.8°C 49% 3.1 mph E5.0 kmh E 6.9 mph11.1 kmh 29.63 in1003.4 mb 0.00 in0.0 mm 0.00 in0.0 mm 0.00 in0.0 mm
07:30 PM 95.0°F35.0°C 73.5°F23.1°C 50% 2.2 mph NE3.5 kmh NE 5.4 mph8.7 kmh 29.63 in1003.4 mb 0.00 in0.0 mm 0.00 in0.0 mm 0.00 in0.0 mm
07:45 PM 94.3°F34.6°C 75.7°F24.3°C 55% 3.8 mph ENE6.1 kmh ENE 7.6 mph12.2 kmh 29.62 in1003.0 mb 0.00 in0.0 mm 0.00 in0.0 mm 0.00 in0.0 mm
08:00 PM 92.7°F33.7°C 76.3°F24.6°C 59% 3.1 mph ENE5.0 kmh ENE 5.4 mph8.7 kmh 29.63 in1003.4 mb 0.00 in0.0 mm 0.00 in0.0 mm 0.00 in0.0 mm
08:15 PM 91.8°F33.2°C 77.5°F25.3°C 63% 2.2 mph E3.5 kmh E 6.0 mph9.7 kmh 29.63 in1003.4 mb 0.00 in0.0 mm 0.00 in0.0 mm 0.00 in0.0 mm
08:30 PM 91.2°F32.9°C 77.4°F25.2°C 64% 4.5 mph ENE7.2 kmh ENE 8.3 mph13.4 kmh 29.62 in1003.0 mb 0.00 in0.0 mm 0.00 in0.0 mm 0.00 in0.0 mm
08:45 PM 91.0°F32.8°C 77.2°F25.1°C 64% 5.4 mph NE8.7 kmh NE 8.3 mph13.4 kmh 29.62 in1003.0 mb 0.00 in0.0 mm 0.00 in0.0 mm 0.00 in0.0 mm
09:00 PM 91.0°F32.8°C 76.8°F24.9°C 63% 3.8 mph NNE6.1 kmh NNE 9.8 mph15.8 kmh 29.62 in1003.0 mb 0.00 in0.0 mm 0.00 in0.0 mm 0.00 in0.0 mm
09:15 PM 90.9°F32.7°C 76.6°F24.8°C 63% 1.6 mph NE2.6 kmh NE 7.6 mph12.2 kmh 29.63 in1003.4 mb 0.00 in0.0 mm 0.00 in0.0 mm 0.00 in0.0 mm
09:30 PM 90.7°F32.6°C 76.9°F24.9°C 64% 2.2 mph NNE3.5 kmh NNE 6.9 mph11.1 kmh 29.65 in1004.1 mb 0.00 in0.0 mm 0.00 in0.0 mm 0.00 in0.0 mm
09:45 PM 90.5°F32.5°C 76.7°F24.8°C 64% 5.4 mph NE8.7 kmh NE 8.3 mph13.4 kmh 29.64 in1003.7 mb 0.00 in0.0 mm 0.00 in0.0 mm 0.00 in0.0 mm
10:00 PM 90.1°F32.3°C 77.3°F25.2°C 66% 3.8 mph E6.1 kmh E 6.9 mph11.1 kmh 29.65 in1004.1 mb 0.00 in0.0 mm 0.00 in0.0 mm 0.00 in0.0 mm
10:15 PM 90.0°F32.2°C 77.2°F25.1°C 66% 3.1 mph NE5.0 kmh NE 6.9 mph11.1 kmh 29.64 in1003.7 mb 0.00 in0.0 mm 0.00 in0.0 mm 0.00 in0.0 mm
10:30 PM 89.8°F32.1°C 77.4°F25.2°C 67% 4.5 mph NE7.2 kmh NE 7.6 mph12.2 kmh 29.64 in1003.7 mb 0.00 in0.0 mm 0.00 in0.0 mm 0.00 in0.0 mm
10:45 PM 89.6°F32.0°C 77.7°F25.4°C 68% 1.6 mph NNE2.6 kmh NNE 6.0 mph9.7 kmh 29.65 in1004.1 mb 0.00 in0.0 mm 0.00 in0.0 mm 0.00 in0.0 mm
11:00 PM 89.8°F32.1°C 77.4°F25.2°C 67% 2.2 mph NNE3.5 kmh NNE 6.9 mph11.1 kmh 29.65 in1004.1 mb 0.00 in0.0 mm 0.00 in0.0 mm 0.00 in0.0 mm
11:15 PM 89.6°F32.0°C 77.3°F25.2°C 67% 3.8 mph NNE6.1 kmh NNE 6.9 mph11.1 kmh 29.64 in1003.7 mb 0.00 in0.0 mm 0.00 in0.0 mm 0.00 in0.0 mm
11:30 PM 89.2°F31.8°C 77.8°F25.4°C 69% 3.1 mph NNE5.0 kmh NNE 7.6 mph12.2 kmh 29.65 in1004.1 mb 0.00 in0.0 mm 0.00 in0.0 mm 0.00 in0.0 mm
11:45 PM 89.2°F31.8°C 78.3°F25.7°C 70% 4.5 mph NE7.2 kmh NE 7.6 mph12.2 kmh 29.65 in1004.1 mb 0.00 in0.0 mm 0.00 in0.0 mm 0.00 in0.0 mm